Terminal Aerodrome Forecast
Issued by NWS

Home | Current Version | Previous Version | Graphics & Text | Print | Product List | Glossary On
Versions: 1 2 3 4 5 6 7 8 9 10 11 12 13 14 15 16 17 18 19 20 21
592
FTUS43 KABR 250617 AAA
TAFPIR
TAF AMD
KPIR 250617Z 2506/2606 13016G26KT P6SM VCTS SCT050CB BKN200
      WS015/15045KT
     FM250900 14013KT P6SM SCT200
     FM251400 28015G23KT P6SM BKN200
     FM260000 30011KT P6SM SCT200=

USA.gov is the U.S. government's official web portal to all federal, state and local government web resources and services.